createdAt,value
2023-02-08T00:01:19.153Z,-4.95
2023-02-08T00:03:46.303Z,-4.99
2023-02-08T00:06:16.842Z,-5.06
2023-02-08T00:08:45.426Z,-5.05
2023-02-08T00:11:12.931Z,-5.09
2023-02-08T00:13:42.336Z,-5.14
2023-02-08T00:16:09.800Z,-5.11
2023-02-08T00:18:36.733Z,-5.11
2023-02-08T00:21:09.758Z,-5.14
2023-02-08T00:23:36.483Z,-5.19
2023-02-08T00:26:05.865Z,-5.19
2023-02-08T00:31:02.738Z,-5.19
2023-02-08T00:33:29.569Z,-5.17
2023-02-08T00:36:04.300Z,-5.11
2023-02-08T00:38:34.008Z,-5.10
2023-02-08T00:41:06.006Z,-5.07
2023-02-08T00:43:33.114Z,-5.17
2023-02-08T00:46:01.216Z,-5.19
2023-02-08T00:48:28.688Z,-5.26
2023-02-08T00:51:08.158Z,-5.35
2023-02-08T00:53:37.591Z,-5.38
2023-02-08T00:56:04.938Z,-5.42
2023-02-08T00:58:31.799Z,-5.37
2023-02-08T01:00:58.605Z,-5.46
2023-02-08T01:03:26.471Z,-5.48
2023-02-08T01:05:54.230Z,-5.52
2023-02-08T01:08:22.152Z,-5.53
2023-02-08T01:10:51.338Z,-5.58
2023-02-08T01:13:18.179Z,-5.58
2023-02-08T01:15:44.878Z,-5.66
2023-02-08T01:18:11.706Z,-5.72
2023-02-08T01:20:40.412Z,-5.73
2023-02-08T01:23:07.416Z,-5.69
2023-02-08T01:25:35.035Z,-5.69
2023-02-08T01:28:01.985Z,-5.75
2023-02-08T01:30:29.093Z,-5.69
2023-02-08T01:32:57.123Z,-5.74
2023-02-08T01:37:51.873Z,-5.84
2023-02-08T01:40:21.374Z,-5.83
2023-02-08T01:42:48.193Z,-5.80
2023-02-08T01:45:20.904Z,-5.85
2023-02-08T01:47:52.329Z,-5.90
2023-02-08T01:50:23.103Z,-5.88
2023-02-08T01:52:51.518Z,-5.89
2023-02-08T01:55:26.629Z,-5.89
2023-02-08T01:57:56.549Z,-5.88
2023-02-08T02:02:56.992Z,-5.91
2023-02-08T02:05:31.574Z,-5.95
2023-02-08T02:07:59.655Z,-5.99
2023-02-08T02:10:30.274Z,-6.03
2023-02-08T02:13:03.144Z,-6.04
2023-02-08T02:15:29.976Z,-6.05
2023-02-08T02:17:57.018Z,-6.10
2023-02-08T02:20:42.209Z,-6.15
2023-02-08T02:23:17.417Z,-6.15
2023-02-08T02:25:49.971Z,-6.15
2023-02-08T02:31:32.676Z,-6.22
2023-02-08T02:34:17.544Z,-6.26
2023-02-08T02:36:47.511Z,-6.23
2023-02-08T02:39:30.487Z,-6.26
2023-02-08T02:42:30.690Z,-6.26
2023-02-08T02:45:16.094Z,-6.29
2023-02-08T02:48:10.456Z,-6.19
2023-02-08T02:50:45.740Z,-6.23
2023-02-08T02:56:06.871Z,-6.36
2023-02-08T02:58:35.847Z,-6.37
2023-02-08T03:01:02.554Z,-6.37
2023-02-08T03:03:34.078Z,-6.39
2023-02-08T03:08:42.918Z,-6.38
2023-02-08T03:11:20.537Z,-6.40
2023-02-08T03:14:02.844Z,-6.39
2023-02-08T03:16:45.672Z,-6.41
2023-02-08T03:19:20.255Z,-6.35
2023-02-08T03:22:14.573Z,-6.34
2023-02-08T03:24:59.764Z,-6.35
2023-02-08T03:27:39.856Z,-6.37
2023-02-08T03:30:20.122Z,-6.41
2023-02-08T03:32:52.534Z,-6.45
2023-02-08T03:35:33.534Z,-6.46
2023-02-08T03:38:11.761Z,-6.39
2023-02-08T03:40:42.352Z,-6.36
2023-02-08T03:43:16.847Z,-6.32
2023-02-08T03:45:50.815Z,-6.28
2023-02-08T03:50:54.019Z,-6.26
2023-02-08T03:55:58.422Z,-6.30
2023-02-08T03:58:34.642Z,-6.27
2023-02-08T04:01:12.797Z,-6.26
2023-02-08T04:03:41.773Z,-6.25
2023-02-08T04:06:08.802Z,-6.21
2023-02-08T04:08:35.799Z,-6.24
2023-02-08T04:11:06.013Z,-6.24
2023-02-08T04:13:33.057Z,-6.34
2023-02-08T04:16:02.789Z,-6.40
2023-02-08T04:18:29.844Z,-6.46
2023-02-08T04:20:58.858Z,-6.49
2023-02-08T04:25:55.314Z,-6.57
2023-02-08T04:28:22.288Z,-6.61
2023-02-08T04:30:49.403Z,-6.61
2023-02-08T04:33:16.850Z,-6.58
2023-02-08T04:35:43.764Z,-6.55
2023-02-08T04:38:12.478Z,-6.59
2023-02-08T04:40:39.849Z,-6.64
2023-02-08T04:43:06.946Z,-6.50
2023-02-08T04:45:34.324Z,-6.62
2023-02-08T04:48:02.063Z,-6.67
2023-02-08T04:50:29.518Z,-6.77
2023-02-08T04:52:58.878Z,-6.79
2023-02-08T04:57:52.837Z,-6.79
2023-02-08T05:00:19.917Z,-6.80
2023-02-08T05:02:46.936Z,-6.88
2023-02-08T05:05:17.102Z,-6.85
2023-02-08T05:07:44.056Z,-6.85
2023-02-08T05:10:11.170Z,-6.84
2023-02-08T05:12:40.786Z,-6.94
2023-02-08T05:15:08.212Z,-6.97
2023-02-08T05:17:35.048Z,-6.98
2023-02-08T05:20:02.058Z,-6.99
2023-02-08T05:22:29.146Z,-7.02
2023-02-08T05:24:56.153Z,-6.99
2023-02-08T05:29:49.879Z,-6.90
2023-02-08T05:32:16.973Z,-6.88
2023-02-08T05:34:43.963Z,-6.86
2023-02-08T05:37:14.091Z,-6.95
2023-02-08T05:39:43.938Z,-6.97
2023-02-08T05:42:10.920Z,-6.99
2023-02-08T05:44:37.734Z,-6.99
2023-02-08T05:47:04.581Z,-7.02
2023-02-08T05:49:40.871Z,-7.00
2023-02-08T05:52:58.739Z,-6.99
2023-02-08T05:55:27.281Z,-6.97
2023-02-08T05:57:54.240Z,-7.00
2023-02-08T06:00:21.057Z,-7.08
2023-02-08T06:02:47.788Z,-7.17
2023-02-08T06:05:14.550Z,-7.22
2023-02-08T06:07:41.247Z,-7.19
2023-02-08T06:10:08.589Z,-7.20
2023-02-08T06:12:36.380Z,-7.23
2023-02-08T06:15:03.182Z,-7.29
2023-02-08T06:17:29.896Z,-7.30
2023-02-08T06:19:56.695Z,-7.35
2023-02-08T06:24:50.001Z,-7.37
2023-02-08T06:27:16.781Z,-7.40
2023-02-08T06:29:46.202Z,-7.42
2023-02-08T06:32:13.196Z,-7.42
2023-02-08T06:34:42.929Z,-7.37
2023-02-08T06:37:14.007Z,-7.35
2023-02-08T06:39:41.478Z,-7.37
2023-02-08T06:42:11.060Z,-7.39
2023-02-08T06:44:39.325Z,-7.42
2023-02-08T06:47:08.785Z,-7.39
2023-02-08T06:49:35.448Z,-7.35
2023-02-08T06:52:05.292Z,-7.44
2023-02-08T06:54:32.062Z,-7.40
2023-02-08T06:56:58.812Z,-7.39
2023-02-08T07:01:52.580Z,-7.33
2023-02-08T07:04:20.021Z,-7.35
2023-02-08T07:06:49.929Z,-7.34
2023-02-08T07:09:17.635Z,-7.32
2023-02-08T07:11:44.404Z,-7.33
2023-02-08T07:14:14.981Z,-7.20
2023-02-08T07:16:42.390Z,-7.19
2023-02-08T07:19:11.549Z,-7.18
2023-02-08T07:21:39.447Z,-7.09
2023-02-08T07:24:11.526Z,-7.04
2023-02-08T07:26:38.228Z,-7.05
2023-02-08T07:29:07.758Z,-7.04
2023-02-08T07:31:37.348Z,-7.08
2023-02-08T07:34:06.426Z,-7.04
2023-02-08T07:36:33.162Z,-6.96
2023-02-08T07:38:59.922Z,-6.84
2023-02-08T07:41:26.536Z,-6.82
2023-02-08T07:43:53.283Z,-6.78
2023-02-08T07:46:21.832Z,-6.70
2023-02-08T07:48:52.780Z,-6.57
2023-02-08T07:51:19.600Z,-6.52
2023-02-08T07:53:49.110Z,-6.41
2023-02-08T07:56:15.836Z,-6.36
2023-02-08T07:58:42.536Z,-6.31
2023-02-08T08:01:21.309Z,-6.24
2023-02-08T08:03:50.248Z,-6.18
2023-02-08T08:06:21.098Z,-6.14
2023-02-08T08:08:48.290Z,-6.06
2023-02-08T08:11:16.918Z,-6.04
2023-02-08T08:13:44.040Z,-6.00
2023-02-08T08:16:11.394Z,-5.95
2023-02-08T08:18:41.027Z,-5.85
2023-02-08T08:21:08.639Z,-5.81
2023-02-08T08:23:36.380Z,-5.76
2023-02-08T08:26:17.986Z,-5.67
2023-02-08T08:28:47.820Z,-5.62
2023-02-08T08:31:30.760Z,-5.49
2023-02-08T08:34:06.038Z,-5.40
2023-02-08T08:36:32.999Z,-5.34
2023-02-08T08:39:02.010Z,-5.25
2023-02-08T08:41:30.068Z,-5.15
2023-02-08T08:44:02.604Z,-4.72
2023-02-08T08:48:56.743Z,-4.32
2023-02-08T08:54:01.665Z,-4.09
2023-02-08T08:56:30.119Z,-3.87
2023-02-08T08:59:02.401Z,-3.85
2023-02-08T09:01:32.348Z,-3.66
2023-02-08T09:04:04.049Z,-3.58
2023-02-08T09:06:35.123Z,-3.47
2023-02-08T09:09:07.945Z,-3.38
2023-02-08T09:11:55.623Z,-3.32
2023-02-08T09:14:32.131Z,-3.16
2023-02-08T09:16:59.137Z,-3.10
2023-02-08T09:20:23.426Z,-2.97
2023-02-08T09:22:53.435Z,-2.82
2023-02-08T09:25:28.958Z,-2.70
2023-02-08T09:28:03.944Z,-2.55
2023-02-08T09:30:53.040Z,-2.47
2023-02-08T09:33:56.396Z,-2.41
2023-02-08T09:36:38.834Z,-2.34
2023-02-08T09:39:27.715Z,-2.16
2023-02-08T09:47:41.845Z,-1.79
2023-02-08T09:53:02.109Z,-1.55
2023-02-08T09:55:36.094Z,-1.42
2023-02-08T09:58:14.109Z,-1.30
2023-02-08T10:00:51.109Z,-1.19
2023-02-08T10:03:46.997Z,-1.06
2023-02-08T10:06:17.571Z,-0.99
2023-02-08T10:08:47.802Z,-0.88
2023-02-08T10:11:54.212Z,-0.73
2023-02-08T10:14:40.150Z,-0.62
2023-02-08T10:17:27.158Z,-0.50
2023-02-08T10:20:07.714Z,-0.42
2023-02-08T10:22:51.599Z,-0.33
2023-02-08T10:25:41.488Z,-0.23
2023-02-08T10:28:30.624Z,-0.08
2023-02-08T10:31:23.855Z,0.01
2023-02-08T10:34:03.886Z,0.10
2023-02-08T10:36:38.033Z,0.24
2023-02-08T10:41:43.017Z,0.46
2023-02-08T10:44:58.115Z,0.54
2023-02-08T10:47:47.014Z,0.71
2023-02-08T10:53:04.478Z,0.94
2023-02-08T10:55:36.680Z,1.05
2023-02-08T10:58:05.785Z,1.11
2023-02-08T11:00:37.242Z,1.23
2023-02-08T11:03:35.783Z,1.32
2023-02-08T11:06:03.216Z,1.43
2023-02-08T11:08:29.955Z,1.53
2023-02-08T11:10:56.537Z,1.60
2023-02-08T11:15:56.405Z,1.75
2023-02-08T11:18:32.839Z,1.93
2023-02-08T11:21:10.506Z,1.98
2023-02-08T11:23:41.683Z,2.02
2023-02-08T11:29:12.311Z,2.23
2023-02-08T11:31:40.741Z,2.30
2023-02-08T11:36:46.712Z,2.39
2023-02-08T11:39:59.258Z,2.46
2023-02-08T11:42:29.876Z,2.50
2023-02-08T11:44:59.779Z,2.42
2023-02-08T11:47:34.511Z,2.50
2023-02-08T11:50:06.992Z,2.50
2023-02-08T11:52:47.462Z,2.56
2023-02-08T11:55:17.194Z,2.60
2023-02-08T11:58:03.318Z,2.65
2023-02-08T12:00:35.918Z,2.66
2023-02-08T12:03:07.968Z,2.69
2023-02-08T12:06:13.479Z,2.65
2023-02-08T12:08:50.182Z,2.56
2023-02-08T12:11:37.546Z,2.67
2023-02-08T12:14:23.760Z,2.79
2023-02-08T12:22:54.888Z,2.79
2023-02-08T12:28:18.986Z,2.87
2023-02-08T12:31:21.572Z,2.88
2023-02-08T12:38:22.915Z,3.15
2023-02-08T12:43:58.470Z,3.26
2023-02-08T12:46:55.815Z,3.24
2023-02-08T12:49:54.541Z,3.05
2023-02-08T12:52:30.771Z,3.09
2023-02-08T12:55:05.666Z,3.03
2023-02-08T12:57:33.415Z,3.06
2023-02-08T13:00:07.489Z,3.10
2023-02-08T13:03:15.334Z,3.15
2023-02-08T13:06:01.308Z,3.12
2023-02-08T13:08:49.502Z,3.16
2023-02-08T13:11:28.039Z,3.10
2023-02-08T13:14:22.550Z,3.14
2023-02-08T13:16:53.546Z,3.18
2023-02-08T13:19:26.460Z,3.26
2023-02-08T13:21:57.641Z,3.33
2023-02-08T13:27:07.212Z,3.31
2023-02-08T13:32:21.798Z,3.20
2023-02-08T13:35:02.100Z,3.16
2023-02-08T13:37:35.629Z,3.16
2023-02-08T13:40:17.385Z,3.15
2023-02-08T13:42:50.755Z,3.15
2023-02-08T13:45:35.920Z,3.16
2023-02-08T13:48:18.351Z,3.13
2023-02-08T13:50:47.404Z,3.07
2023-02-08T13:53:20.412Z,3.06
2023-02-08T13:56:02.779Z,3.05
2023-02-08T13:59:02.222Z,3.06
2023-02-08T14:02:07.424Z,3.03
2023-02-08T14:07:32.212Z,2.99
2023-02-08T14:10:10.127Z,2.97
2023-02-08T14:12:42.883Z,2.97
2023-02-08T14:15:15.556Z,2.97
2023-02-08T14:17:47.278Z,2.95
2023-02-08T14:20:21.102Z,2.93
2023-02-08T14:22:56.151Z,2.89
2023-02-08T14:25:30.181Z,2.96
2023-02-08T14:28:00.045Z,2.95
2023-02-08T14:33:08.669Z,2.88
2023-02-08T14:35:53.286Z,2.82
2023-02-08T14:38:24.119Z,2.78
2023-02-08T14:41:04.069Z,2.81
2023-02-08T14:43:42.498Z,2.79
2023-02-08T14:46:43.903Z,2.76
2023-02-08T14:52:25.068Z,2.67
2023-02-08T14:55:02.828Z,2.64
2023-02-08T14:57:39.004Z,2.54
2023-02-08T15:00:16.907Z,2.50
2023-02-08T15:02:46.366Z,2.44
2023-02-08T15:05:41.771Z,2.41
2023-02-08T15:08:11.196Z,2.33
2023-02-08T15:10:44.868Z,2.33
2023-02-08T15:13:24.940Z,2.30
2023-02-08T15:15:57.758Z,2.24
2023-02-08T15:18:33.120Z,2.19
2023-02-08T15:26:04.858Z,2.00
2023-02-08T15:31:11.649Z,1.88
2023-02-08T15:33:45.390Z,1.82
2023-02-08T15:47:25.768Z,1.55
2023-02-08T15:50:16.336Z,1.49
2023-02-08T15:52:49.855Z,1.47
2023-02-08T15:58:07.125Z,1.34
2023-02-08T16:03:08.712Z,1.11
2023-02-08T16:08:08.014Z,1.13
2023-02-08T16:13:24.925Z,1.01
2023-02-08T16:16:14.962Z,0.93
2023-02-08T16:18:57.297Z,0.85
2023-02-08T16:24:10.989Z,0.72
2023-02-08T16:26:49.551Z,0.71
2023-02-08T16:29:38.298Z,0.53
2023-02-08T16:32:26.738Z,0.55
2023-02-08T16:37:28.632Z,0.51
2023-02-08T16:39:56.936Z,0.44
2023-02-08T16:42:42.818Z,0.42
2023-02-08T16:45:10.116Z,0.34
2023-02-08T16:47:48.775Z,0.30
2023-02-08T16:52:55.385Z,0.13
2023-02-08T16:55:26.197Z,0.15
2023-02-08T16:57:55.275Z,0.16
2023-02-08T17:02:58.774Z,0.15
2023-02-08T17:05:29.596Z,0.10
2023-02-08T17:07:58.108Z,0.01
2023-02-08T17:10:30.603Z,0.02
2023-02-08T17:13:13.314Z,-0.02
2023-02-08T17:15:45.830Z,-0.06
2023-02-08T17:18:13.903Z,-0.18
2023-02-08T17:23:07.776Z,-0.25
2023-02-08T17:25:36.067Z,-0.34
2023-02-08T17:28:09.983Z,-0.33
2023-02-08T17:33:22.358Z,-0.39
2023-02-08T17:35:51.363Z,-0.47
2023-02-08T17:38:19.643Z,-0.51
2023-02-08T17:40:46.455Z,-0.55
2023-02-08T17:43:13.666Z,-0.51
2023-02-08T17:48:08.929Z,-0.56
2023-02-08T17:50:37.450Z,-0.53
2023-02-08T17:55:35.541Z,-0.61
2023-02-08T18:03:00.513Z,-0.71
2023-02-08T18:05:28.835Z,-0.76
2023-02-08T18:07:58.931Z,-0.76
2023-02-08T18:10:26.433Z,-0.87
2023-02-08T18:12:53.204Z,-0.90
2023-02-08T18:15:22.247Z,-0.98
2023-02-08T18:17:54.051Z,-0.92
2023-02-08T18:22:51.485Z,-1.00
2023-02-08T18:25:18.969Z,-0.98
2023-02-08T18:27:45.636Z,-1.04
2023-02-08T18:30:13.199Z,-1.09
2023-02-08T18:35:08.849Z,-1.15
2023-02-08T18:37:36.937Z,-1.24
2023-02-08T18:40:09.641Z,-1.36
2023-02-08T18:42:36.536Z,-1.41
2023-02-08T18:45:05.428Z,-1.44
2023-02-08T18:47:32.531Z,-1.43
2023-02-08T18:49:59.110Z,-1.39
2023-02-08T18:52:25.966Z,-1.42
2023-02-08T18:54:52.472Z,-1.52
2023-02-08T18:57:19.620Z,-1.60
2023-02-08T18:59:46.291Z,-1.55
2023-02-08T19:02:21.277Z,-1.64
2023-02-08T19:04:48.433Z,-1.64
2023-02-08T19:07:15.166Z,-1.66
2023-02-08T19:12:10.479Z,-1.72
2023-02-08T19:14:37.453Z,-1.84
2023-02-08T19:17:04.425Z,-1.83
2023-02-08T19:19:31.047Z,-1.80
2023-02-08T19:21:57.693Z,-1.78
2023-02-08T19:26:50.964Z,-1.72
2023-02-08T19:29:22.033Z,-1.72
2023-02-08T19:31:50.281Z,-1.82
2023-02-08T19:34:17.972Z,-1.92
2023-02-08T19:36:49.512Z,-1.98
2023-02-08T19:39:19.555Z,-1.93
2023-02-08T19:41:53.082Z,-1.93
2023-02-08T19:46:57.210Z,-1.95
2023-02-08T19:49:25.957Z,-2.06
2023-02-08T19:51:53.388Z,-2.10
2023-02-08T19:54:22.596Z,-2.10
2023-02-08T19:56:57.562Z,-2.16
2023-02-08T19:59:35.319Z,-2.15
2023-02-08T20:02:04.932Z,-2.13
2023-02-08T20:04:33.540Z,-2.13
2023-02-08T20:07:00.412Z,-2.14
2023-02-08T20:09:27.491Z,-2.19
2023-02-08T20:11:57.159Z,-2.16
2023-02-08T20:14:32.197Z,-2.13
2023-02-08T20:17:00.370Z,-2.30
2023-02-08T20:21:57.424Z,-2.25
2023-02-08T20:24:24.504Z,-2.24
2023-02-08T20:29:20.947Z,-2.32
2023-02-08T20:34:23.224Z,-2.51
2023-02-08T20:37:07.469Z,-2.60
2023-02-08T20:39:36.297Z,-2.50
2023-02-08T20:42:03.737Z,-2.48
2023-02-08T20:44:34.129Z,-2.50
2023-02-08T20:47:13.066Z,-2.66
2023-02-08T20:49:41.638Z,-2.68
2023-02-08T20:52:12.445Z,-2.74
2023-02-08T20:54:44.465Z,-2.73
2023-02-08T20:57:15.498Z,-2.61
2023-02-08T20:59:42.564Z,-2.70
2023-02-08T21:02:26.351Z,-2.73
2023-02-08T21:07:23.451Z,-2.76
2023-02-08T21:12:17.557Z,-2.74
2023-02-08T21:17:18.698Z,-2.90
2023-02-08T21:22:26.899Z,-3.12
2023-02-08T21:24:57.032Z,-3.05
2023-02-08T21:27:27.578Z,-3.05
2023-02-08T21:30:02.132Z,-3.05
2023-02-08T21:35:09.814Z,-3.09
2023-02-08T21:37:38.930Z,-3.12
2023-02-08T21:40:14.308Z,-3.17
2023-02-08T21:42:41.368Z,-3.08
2023-02-08T21:45:09.788Z,-3.14
2023-02-08T21:47:37.210Z,-3.18
2023-02-08T21:50:23.161Z,-3.10
2023-02-08T21:53:08.889Z,-3.13
2023-02-08T21:55:39.023Z,-3.20
2023-02-08T21:58:06.070Z,-3.27
2023-02-08T22:02:59.877Z,-3.31
2023-02-08T22:08:13.336Z,-3.35
2023-02-08T22:10:57.554Z,-3.23
2023-02-08T22:13:25.090Z,-3.29
2023-02-08T22:18:21.351Z,-3.43
2023-02-08T22:23:24.562Z,-3.59
2023-02-08T22:28:18.350Z,-3.78
2023-02-08T22:38:11.187Z,-3.92
2023-02-08T22:40:41.323Z,-3.92
2023-02-08T22:43:08.767Z,-3.94
2023-02-08T22:45:35.764Z,-3.93
2023-02-08T22:48:02.761Z,-4.02
2023-02-08T22:50:32.398Z,-4.02
2023-02-08T22:53:06.743Z,-3.96
2023-02-08T22:55:33.818Z,-3.95
2023-02-08T22:58:01.669Z,-3.91
2023-02-08T23:00:28.978Z,-3.81
2023-02-08T23:05:27.659Z,-3.77
2023-02-08T23:10:23.838Z,-3.82
2023-02-08T23:15:17.873Z,-3.73
2023-02-08T23:17:44.754Z,-3.72
2023-02-08T23:20:14.551Z,-3.63
2023-02-08T23:22:41.360Z,-3.65
2023-02-08T23:25:08.541Z,-3.71
2023-02-08T23:30:02.810Z,-3.73
2023-02-08T23:34:56.609Z,-3.81
2023-02-08T23:37:23.567Z,-3.86
2023-02-08T23:42:26.175Z,-3.83
2023-02-08T23:45:00.136Z,-3.78
2023-02-08T23:47:29.888Z,-3.88
2023-02-08T23:49:56.828Z,-3.82
2023-02-08T23:52:23.610Z,-3.94
2023-02-08T23:57:18.073Z,-4.02
